createdAt,value
2022-12-03T00:00:12.479Z,101024.00
2022-12-03T00:02:41.818Z,101027.00
2022-12-03T00:05:10.313Z,101017.00
2022-12-03T00:07:38.020Z,101028.00
2022-12-03T00:10:09.686Z,101013.00
2022-12-03T00:12:37.607Z,101018.00
2022-12-03T00:15:06.459Z,101020.00
2022-12-03T00:17:34.188Z,101018.00
2022-12-03T00:20:01.838Z,101013.00
2022-12-03T00:22:29.456Z,101011.00
2022-12-03T00:24:57.376Z,101011.00
2022-12-03T00:27:25.266Z,101009.00
2022-12-03T00:29:53.248Z,101013.00
2022-12-03T00:32:20.983Z,101008.00
2022-12-03T00:34:48.718Z,101007.00
2022-12-03T00:37:16.832Z,101008.00
2022-12-03T00:39:44.623Z,101005.00
2022-12-03T00:42:12.386Z,101009.00
2022-12-03T00:44:40.415Z,101007.00
2022-12-03T00:47:08.251Z,101013.00
2022-12-03T00:49:36.188Z,101009.00
2022-12-03T00:52:04.195Z,101002.00
2022-12-03T00:54:32.448Z,101010.00
2022-12-03T00:57:00.835Z,100997.00
2022-12-03T00:59:28.694Z,101004.00
2022-12-03T01:01:56.695Z,101005.00
2022-12-03T01:04:24.675Z,101004.00
2022-12-03T01:06:52.533Z,101007.00
2022-12-03T01:09:20.566Z,101005.00
2022-12-03T01:11:48.521Z,101010.00
2022-12-03T01:14:18.683Z,101001.00
2022-12-03T01:16:47.364Z,100999.00
2022-12-03T01:19:16.273Z,101019.00
2022-12-03T01:21:49.129Z,101012.00
2022-12-03T01:24:17.789Z,101016.00
2022-12-03T01:26:45.648Z,101013.00
2022-12-03T01:29:13.887Z,101011.00
2022-12-03T01:32:00.112Z,101006.00
2022-12-03T01:34:28.245Z,101006.00
2022-12-03T01:36:58.812Z,101010.00
2022-12-03T01:39:26.514Z,101010.00
2022-12-03T01:41:55.551Z,101005.00
2022-12-03T01:44:32.737Z,101008.00
2022-12-03T01:47:03.658Z,101013.00
2022-12-03T01:49:34.863Z,101006.00
2022-12-03T01:52:02.748Z,101002.00
2022-12-03T01:54:37.467Z,101003.00
2022-12-03T01:57:06.053Z,101006.00
2022-12-03T01:59:38.916Z,101008.00
2022-12-03T02:02:15.084Z,101003.00
2022-12-03T02:04:43.169Z,101003.00
2022-12-03T02:07:17.909Z,101004.00
2022-12-03T02:09:45.642Z,101007.00
2022-12-03T02:12:14.407Z,101004.00
2022-12-03T02:14:42.195Z,101001.00
2022-12-03T02:17:10.206Z,101003.00
2022-12-03T02:19:38.665Z,100995.00
2022-12-03T02:22:32.218Z,101001.00
2022-12-03T02:25:12.122Z,100998.00
2022-12-03T02:27:40.253Z,101000.00
2022-12-03T02:30:08.799Z,100993.00
2022-12-03T02:32:36.995Z,101001.00
2022-12-03T02:35:05.072Z,101003.00
2022-12-03T02:37:35.968Z,101002.00
2022-12-03T02:40:07.560Z,100997.00
2022-12-03T02:42:36.263Z,100999.00
2022-12-03T02:45:07.409Z,101001.00
2022-12-03T02:47:39.236Z,101002.00
2022-12-03T02:50:07.475Z,100998.00
2022-12-03T02:52:35.520Z,101005.00
2022-12-03T02:55:04.730Z,101002.00
2022-12-03T02:57:33.141Z,101003.00
2022-12-03T03:00:00.918Z,100999.00
2022-12-03T03:02:29.241Z,101001.00
2022-12-03T03:04:57.948Z,101003.00
2022-12-03T03:07:25.896Z,100997.00
2022-12-03T03:09:53.685Z,101012.00
2022-12-03T03:12:21.514Z,101008.00
2022-12-03T03:14:49.379Z,101002.00
2022-12-03T03:17:17.310Z,100996.00
2022-12-03T03:19:45.082Z,100997.00
2022-12-03T03:22:13.039Z,101004.00
2022-12-03T03:24:40.777Z,101004.00
2022-12-03T03:27:08.676Z,101001.00
2022-12-03T03:29:37.118Z,101006.00
2022-12-03T03:32:05.546Z,101004.00
2022-12-03T03:34:34.160Z,100995.00
2022-12-03T03:37:02.015Z,100998.00
2022-12-03T03:39:29.819Z,101000.00
2022-12-03T03:41:57.546Z,101000.00
2022-12-03T03:44:25.501Z,101003.00
2022-12-03T03:46:53.292Z,100988.00
2022-12-03T03:49:21.646Z,100985.00
2022-12-03T03:51:51.571Z,100989.00
2022-12-03T03:54:19.535Z,100990.00
2022-12-03T03:56:48.012Z,100982.00
2022-12-03T03:59:16.241Z,100981.00
2022-12-03T04:01:46.210Z,100978.00
2022-12-03T04:04:20.194Z,100976.00
2022-12-03T04:06:48.899Z,100968.00
2022-12-03T04:09:16.871Z,100974.00
2022-12-03T04:12:03.204Z,100971.00
2022-12-03T04:14:31.015Z,100972.00
2022-12-03T04:16:58.947Z,100968.00
2022-12-03T04:19:26.843Z,100970.00
2022-12-03T04:22:13.317Z,100969.00
2022-12-03T04:24:41.093Z,100968.00
2022-12-03T04:27:28.178Z,100964.00
2022-12-03T04:29:55.827Z,100963.00
2022-12-03T04:32:42.108Z,100964.00
2022-12-03T04:35:29.574Z,100966.00
2022-12-03T04:37:57.663Z,100970.00
2022-12-03T04:40:44.215Z,100973.00
2022-12-03T04:43:13.244Z,100958.00
2022-12-03T04:45:41.324Z,100963.00
2022-12-03T04:48:09.071Z,100968.00
2022-12-03T04:50:36.723Z,100966.00
2022-12-03T04:53:04.394Z,100968.00
2022-12-03T04:55:32.535Z,100964.00
2022-12-03T04:58:00.316Z,100971.00
2022-12-03T05:00:28.250Z,100961.00
2022-12-03T05:02:56.015Z,100970.00
2022-12-03T05:05:23.746Z,100971.00
2022-12-03T05:07:52.049Z,100965.00
2022-12-03T05:10:20.183Z,100967.00
2022-12-03T05:12:48.168Z,100959.00
2022-12-03T05:15:16.053Z,100964.00
2022-12-03T05:17:43.790Z,100968.00
2022-12-03T05:20:30.593Z,100958.00
2022-12-03T05:22:59.666Z,100963.00
2022-12-03T05:25:27.388Z,100948.00
2022-12-03T05:27:55.205Z,100956.00
2022-12-03T05:30:23.162Z,100945.00
2022-12-03T05:32:51.084Z,100951.00
2022-12-03T05:35:18.968Z,100948.00
2022-12-03T05:37:46.845Z,100952.00
2022-12-03T05:40:15.098Z,100955.00
2022-12-03T05:42:55.136Z,100949.00
2022-12-03T05:45:25.176Z,100951.00
2022-12-03T05:47:53.945Z,100946.00
2022-12-03T05:50:23.181Z,100946.00
2022-12-03T05:52:51.643Z,100950.00
2022-12-03T05:55:20.082Z,100941.00
2022-12-03T05:57:48.096Z,100951.00
2022-12-03T06:00:21.623Z,100945.00
2022-12-03T06:02:49.752Z,100947.00
2022-12-03T06:05:19.695Z,100950.00
2022-12-03T06:07:48.655Z,100944.00
2022-12-03T06:10:22.609Z,100949.00
2022-12-03T06:12:51.207Z,100946.00
2022-12-03T06:15:20.034Z,100948.00
2022-12-03T06:17:48.186Z,100955.00
2022-12-03T06:20:19.086Z,100950.00
2022-12-03T06:22:47.671Z,100946.00
2022-12-03T06:25:16.694Z,100951.00
2022-12-03T06:27:44.831Z,100951.00
2022-12-03T06:30:13.875Z,100947.00
2022-12-03T06:32:41.800Z,100951.00
2022-12-03T06:35:09.684Z,100947.00
2022-12-03T06:37:37.521Z,100952.00
2022-12-03T06:40:06.099Z,100958.00
2022-12-03T06:42:33.990Z,100955.00
2022-12-03T06:45:01.873Z,100948.00
2022-12-03T06:47:33.814Z,100949.00
2022-12-03T06:50:01.613Z,100940.00
2022-12-03T06:52:29.444Z,100946.00
2022-12-03T06:54:57.695Z,100946.00
2022-12-03T06:57:25.384Z,100947.00
2022-12-03T06:59:53.427Z,100952.00
2022-12-03T07:02:21.500Z,100946.00
2022-12-03T07:04:49.250Z,100949.00
2022-12-03T07:07:17.201Z,100949.00
2022-12-03T07:09:44.971Z,100946.00
2022-12-03T07:12:12.743Z,100951.00
2022-12-03T07:14:40.651Z,100942.00
2022-12-03T07:17:08.408Z,100949.00
2022-12-03T07:19:36.408Z,100947.00
2022-12-03T07:22:04.139Z,100943.00
2022-12-03T07:24:31.817Z,100946.00
2022-12-03T07:27:02.361Z,100940.00
2022-12-03T07:29:30.427Z,100937.00
2022-12-03T07:31:58.208Z,100938.00
2022-12-03T07:34:26.182Z,100941.00
2022-12-03T07:36:54.185Z,100935.00
2022-12-03T07:39:22.014Z,100943.00
2022-12-03T07:41:49.968Z,100942.00
2022-12-03T07:44:17.804Z,100936.00
2022-12-03T07:46:46.043Z,100936.00
2022-12-03T07:49:14.511Z,100930.00
2022-12-03T07:51:43.097Z,100930.00
2022-12-03T07:54:11.411Z,100936.00
2022-12-03T07:56:39.231Z,100930.00
2022-12-03T07:59:07.024Z,100929.00
2022-12-03T08:01:35.063Z,100929.00
2022-12-03T08:04:03.240Z,100926.00
2022-12-03T08:06:31.066Z,100923.00
2022-12-03T08:08:59.172Z,100934.00
2022-12-03T08:11:29.606Z,100921.00
2022-12-03T08:14:00.506Z,100919.00
2022-12-03T08:16:30.416Z,100919.00
2022-12-03T08:18:58.517Z,100922.00
2022-12-03T08:21:29.720Z,100916.00
2022-12-03T08:23:58.278Z,100916.00
2022-12-03T08:26:27.275Z,100916.00
2022-12-03T08:28:55.080Z,100918.00
2022-12-03T08:31:33.425Z,100911.00
2022-12-03T08:34:22.696Z,100916.00
2022-12-03T08:37:06.505Z,100912.00
2022-12-03T08:39:44.689Z,100915.00
2022-12-03T08:42:44.313Z,100920.00
2022-12-03T08:45:41.200Z,100919.00
2022-12-03T08:48:34.628Z,100912.00
2022-12-03T08:51:27.728Z,100913.00
2022-12-03T08:54:02.825Z,100914.00
2022-12-03T08:56:30.745Z,100920.00
2022-12-03T08:59:18.927Z,100914.00
2022-12-03T09:01:47.475Z,100918.00
2022-12-03T09:04:25.285Z,100905.00
2022-12-03T09:06:53.853Z,100913.00
2022-12-03T09:09:22.189Z,100909.00
2022-12-03T09:11:50.707Z,100911.00
2022-12-03T09:14:21.358Z,100909.00
2022-12-03T09:16:50.902Z,100915.00
2022-12-03T09:19:18.704Z,100912.00
2022-12-03T09:21:46.496Z,100914.00
2022-12-03T09:24:14.437Z,100913.00
2022-12-03T09:26:42.352Z,100910.00
2022-12-03T09:29:12.304Z,100912.00
2022-12-03T09:31:41.129Z,100916.00
2022-12-03T09:34:09.555Z,100916.00
2022-12-03T09:36:37.769Z,100911.00
2022-12-03T09:39:06.046Z,100905.00
2022-12-03T09:41:33.947Z,100907.00
2022-12-03T09:44:04.927Z,100904.00
2022-12-03T09:46:35.534Z,100909.00
2022-12-03T09:49:04.346Z,100903.00
2022-12-03T09:51:34.823Z,100905.00
2022-12-03T09:54:07.243Z,100891.00
2022-12-03T09:56:39.021Z,100891.00
2022-12-03T09:59:15.074Z,100888.00
2022-12-03T10:01:43.454Z,100885.00
2022-12-03T10:04:12.062Z,100887.00
2022-12-03T10:06:45.533Z,100887.00
2022-12-03T10:09:17.531Z,100887.00
2022-12-03T10:11:45.870Z,100883.00
2022-12-03T10:14:15.512Z,100876.00
2022-12-03T10:16:43.667Z,100879.00
2022-12-03T10:19:24.182Z,100872.00
2022-12-03T10:21:52.731Z,100873.00
2022-12-03T10:24:30.795Z,100866.00
2022-12-03T10:27:23.020Z,100865.00
2022-12-03T10:29:59.050Z,100869.00
2022-12-03T10:32:48.204Z,100866.00
2022-12-03T10:35:20.330Z,100868.00
2022-12-03T10:38:19.878Z,100862.00
2022-12-03T10:40:48.550Z,100864.00
2022-12-03T10:43:19.409Z,100861.00
2022-12-03T10:46:11.198Z,100853.00
2022-12-03T10:48:39.618Z,100858.00
2022-12-03T10:51:21.431Z,100858.00
2022-12-03T10:53:50.488Z,100855.00
2022-12-03T10:56:28.446Z,100860.00
2022-12-03T10:58:56.386Z,100862.00
2022-12-03T11:01:26.031Z,100858.00
2022-12-03T11:03:56.078Z,100852.00
2022-12-03T11:06:24.659Z,100849.00
2022-12-03T11:08:57.791Z,100844.00
2022-12-03T11:11:28.288Z,100838.00
2022-12-03T11:14:00.436Z,100827.00
2022-12-03T11:16:54.395Z,100835.00
2022-12-03T11:19:40.519Z,100834.00
2022-12-03T11:22:11.709Z,100829.00
2022-12-03T11:24:40.757Z,100829.00
2022-12-03T11:27:12.008Z,100825.00
2022-12-03T11:29:55.082Z,100818.00
2022-12-03T11:32:44.596Z,100820.00
2022-12-03T11:35:14.387Z,100814.00
2022-12-03T11:37:42.704Z,100814.00
2022-12-03T11:40:19.557Z,100812.00
2022-12-03T11:42:48.505Z,100816.00
2022-12-03T11:45:31.496Z,100817.00
2022-12-03T11:47:59.279Z,100812.00
2022-12-03T11:50:37.634Z,100816.00
2022-12-03T11:53:19.576Z,100815.00
2022-12-03T11:56:15.308Z,100813.00
2022-12-03T11:58:45.396Z,100808.00
2022-12-03T12:01:14.327Z,100807.00
2022-12-03T12:03:47.709Z,100803.00
2022-12-03T12:06:18.278Z,100805.00
2022-12-03T12:08:52.051Z,100803.00
2022-12-03T12:11:32.768Z,100805.00
2022-12-03T12:14:03.496Z,100798.00
2022-12-03T12:16:52.388Z,100798.00
2022-12-03T12:19:43.346Z,100798.00
2022-12-03T12:22:27.596Z,100794.00
2022-12-03T12:25:03.281Z,100795.00
2022-12-03T12:27:45.381Z,100793.00
2022-12-03T12:30:19.449Z,100784.00
2022-12-03T12:32:52.695Z,100783.00
2022-12-03T12:35:33.028Z,100775.00
2022-12-03T12:38:06.866Z,100768.00
2022-12-03T12:40:39.545Z,100766.00
2022-12-03T12:43:24.663Z,100766.00
2022-12-03T12:45:53.573Z,100760.00
2022-12-03T12:48:29.550Z,100761.00
2022-12-03T12:51:16.989Z,100753.00
2022-12-03T12:53:44.797Z,100756.00
2022-12-03T12:56:15.420Z,100762.00
2022-12-03T12:58:43.641Z,100761.00
2022-12-03T13:01:25.511Z,100766.00
2022-12-03T13:03:53.843Z,100762.00
2022-12-03T13:06:28.717Z,100761.00
2022-12-03T13:08:56.704Z,100768.00
2022-12-03T13:11:39.688Z,100764.00
2022-12-03T13:14:17.307Z,100760.00
2022-12-03T13:16:45.572Z,100764.00
2022-12-03T13:19:28.044Z,100760.00
2022-12-03T13:22:17.197Z,100764.00
2022-12-03T13:24:54.024Z,100759.00
2022-12-03T13:27:31.941Z,100757.00
2022-12-03T13:30:10.091Z,100751.00
2022-12-03T13:32:39.385Z,100750.00
2022-12-03T13:35:30.783Z,100746.00
2022-12-03T13:38:02.061Z,100748.00
2022-12-03T13:40:36.153Z,100747.00
2022-12-03T13:43:14.925Z,100746.00
2022-12-03T13:45:45.564Z,100753.00
2022-12-03T13:48:35.099Z,100741.00
2022-12-03T13:51:28.735Z,100745.00
2022-12-03T13:53:57.124Z,100733.00
2022-12-03T13:56:33.873Z,100731.00
2022-12-03T13:59:03.724Z,100739.00
2022-12-03T14:01:31.638Z,100738.00
2022-12-03T14:03:59.709Z,100730.00
2022-12-03T14:06:27.586Z,100739.00
2022-12-03T14:08:55.367Z,100730.00
2022-12-03T14:11:41.638Z,100736.00
2022-12-03T14:14:09.447Z,100734.00
2022-12-03T14:16:37.311Z,100726.00
2022-12-03T14:19:05.271Z,100730.00
2022-12-03T14:21:33.042Z,100735.00
2022-12-03T14:24:00.956Z,100727.00
2022-12-03T14:26:28.799Z,100721.00
2022-12-03T14:28:56.590Z,100726.00
2022-12-03T14:31:24.510Z,100730.00
2022-12-03T14:33:52.808Z,100725.00
2022-12-03T14:36:21.599Z,100727.00
2022-12-03T14:38:49.455Z,100715.00
2022-12-03T14:41:35.792Z,100715.00
2022-12-03T14:44:03.584Z,100713.00
2022-12-03T14:46:33.866Z,100712.00
2022-12-03T14:49:01.745Z,100715.00
2022-12-03T14:51:29.927Z,100718.00
2022-12-03T14:53:57.699Z,100718.00
2022-12-03T14:56:25.550Z,100718.00
2022-12-03T14:58:53.386Z,100728.00
2022-12-03T15:01:21.290Z,100727.00
2022-12-03T15:03:52.263Z,100727.00
2022-12-03T15:06:20.139Z,100721.00
2022-12-03T15:08:47.900Z,100715.00
2022-12-03T15:11:15.794Z,100719.00
2022-12-03T15:13:46.633Z,100714.00
2022-12-03T15:16:14.454Z,100707.00
2022-12-03T15:18:42.241Z,100709.00
2022-12-03T15:21:09.946Z,100712.00
2022-12-03T15:23:37.773Z,100704.00
2022-12-03T15:26:06.243Z,100717.00
2022-12-03T15:28:34.178Z,100717.00
2022-12-03T15:31:02.344Z,100716.00
2022-12-03T15:33:30.279Z,100714.00
2022-12-03T15:35:58.317Z,100717.00
2022-12-03T15:38:26.243Z,100714.00
2022-12-03T15:40:54.139Z,100721.00
2022-12-03T15:43:22.016Z,100716.00
2022-12-03T15:45:50.010Z,100716.00
2022-12-03T15:48:17.830Z,100723.00
2022-12-03T15:50:45.982Z,100713.00
2022-12-03T15:53:13.874Z,100704.00
2022-12-03T15:55:41.674Z,100708.00
2022-12-03T15:58:09.374Z,100705.00
2022-12-03T16:00:37.042Z,100704.00
2022-12-03T16:03:04.807Z,100713.00
2022-12-03T16:05:32.547Z,100710.00
2022-12-03T16:08:00.604Z,100708.00
2022-12-03T16:10:43.698Z,100712.00
2022-12-03T16:13:11.543Z,100709.00
2022-12-03T16:15:39.434Z,100707.00
2022-12-03T16:18:07.294Z,100713.00
2022-12-03T16:20:35.589Z,100712.00
2022-12-03T16:23:03.448Z,100708.00
2022-12-03T16:25:31.186Z,100707.00
2022-12-03T16:27:59.017Z,100721.00
2022-12-03T16:30:27.970Z,100706.00
2022-12-03T16:32:56.009Z,100716.00
2022-12-03T16:35:24.162Z,100716.00
2022-12-03T16:37:52.122Z,100720.00
2022-12-03T16:40:19.973Z,100723.00
2022-12-03T16:42:47.754Z,100714.00
2022-12-03T16:45:21.640Z,100724.00
2022-12-03T16:47:50.098Z,100731.00
2022-12-03T16:50:24.370Z,100731.00
2022-12-03T16:52:58.277Z,100733.00
2022-12-03T16:55:26.183Z,100734.00
2022-12-03T16:57:54.080Z,100728.00
2022-12-03T17:00:22.476Z,100730.00
2022-12-03T17:02:50.465Z,100729.00
2022-12-03T17:05:18.296Z,100724.00
2022-12-03T17:07:46.096Z,100726.00
2022-12-03T17:10:14.337Z,100721.00
2022-12-03T17:13:08.196Z,100733.00
2022-12-03T17:15:29.908Z,100726.00
2022-12-03T17:17:58.746Z,100733.00
2022-12-03T17:20:26.499Z,100722.00
2022-12-03T17:22:54.114Z,100729.00
2022-12-03T17:25:21.964Z,100723.00
2022-12-03T17:27:49.705Z,100715.00
2022-12-03T17:30:17.919Z,100717.00
2022-12-03T17:32:45.932Z,100714.00
2022-12-03T17:35:13.766Z,100715.00
2022-12-03T17:37:41.609Z,100710.00
2022-12-03T17:40:11.440Z,100705.00
2022-12-03T17:42:39.251Z,100704.00
2022-12-03T17:45:08.873Z,100710.00
2022-12-03T17:47:37.013Z,100705.00
2022-12-03T17:50:05.282Z,100712.00
2022-12-03T17:52:33.542Z,100705.00
2022-12-03T17:55:11.753Z,100699.00
2022-12-03T17:57:42.200Z,100704.00
2022-12-03T18:00:10.820Z,100708.00
2022-12-03T18:02:43.157Z,100704.00
2022-12-03T18:05:11.155Z,100716.00
2022-12-03T18:07:39.125Z,100712.00
2022-12-03T18:10:08.116Z,100716.00
2022-12-03T18:12:36.112Z,100706.00
2022-12-03T18:15:04.079Z,100706.00
2022-12-03T18:17:31.901Z,100705.00
2022-12-03T18:19:59.942Z,100701.00
2022-12-03T18:22:29.047Z,100702.00
2022-12-03T18:24:57.098Z,100708.00
2022-12-03T18:27:25.027Z,100705.00
2022-12-03T18:29:53.189Z,100692.00
2022-12-03T18:32:28.774Z,100702.00
2022-12-03T18:34:58.077Z,100701.00
2022-12-03T18:37:28.619Z,100692.00
2022-12-03T18:39:58.129Z,100697.00
2022-12-03T18:42:26.583Z,100690.00
2022-12-03T18:44:56.495Z,100691.00
2022-12-03T18:47:33.191Z,100693.00
2022-12-03T18:50:01.121Z,100700.00
2022-12-03T18:52:29.132Z,100688.00
2022-12-03T18:54:57.915Z,100682.00
2022-12-03T18:57:25.728Z,100675.00
2022-12-03T18:59:54.397Z,100679.00
2022-12-03T19:05:11.055Z,100669.00
2022-12-03T19:07:39.042Z,100684.00
2022-12-03T19:10:07.695Z,100685.00
2022-12-03T19:12:35.806Z,100687.00
2022-12-03T19:15:04.892Z,100684.00
2022-12-03T19:17:32.760Z,100680.00
2022-12-03T19:20:00.572Z,100690.00
2022-12-03T19:22:28.922Z,100689.00
2022-12-03T19:24:56.962Z,100690.00
2022-12-03T19:27:24.961Z,100690.00
2022-12-03T19:29:55.611Z,100691.00
2022-12-03T19:32:23.670Z,100683.00
2022-12-03T19:34:51.453Z,100692.00
2022-12-03T19:37:19.235Z,100685.00
2022-12-03T19:39:47.173Z,100679.00
2022-12-03T19:42:14.942Z,100670.00
2022-12-03T19:44:42.794Z,100682.00
2022-12-03T19:47:10.798Z,100672.00
2022-12-03T19:49:38.578Z,100676.00
2022-12-03T19:52:06.566Z,100685.00
2022-12-03T19:54:34.303Z,100682.00
2022-12-03T19:57:02.099Z,100684.00
2022-12-03T19:59:29.959Z,100684.00
2022-12-03T20:01:57.864Z,100686.00
2022-12-03T20:04:25.745Z,100689.00
2022-12-03T20:06:53.720Z,100689.00
2022-12-03T20:09:22.793Z,100682.00
2022-12-03T20:11:51.951Z,100680.00
2022-12-03T20:14:21.441Z,100680.00
2022-12-03T20:16:49.877Z,100683.00
2022-12-03T20:19:18.152Z,100688.00
2022-12-03T20:21:46.166Z,100690.00
2022-12-03T20:24:16.315Z,100689.00
2022-12-03T20:26:44.702Z,100680.00
2022-12-03T20:29:14.324Z,100679.00
2022-12-03T20:31:42.327Z,100683.00
2022-12-03T20:34:11.377Z,100683.00
2022-12-03T20:36:40.171Z,100686.00
2022-12-03T20:39:08.618Z,100694.00
2022-12-03T20:41:37.673Z,100694.00
2022-12-03T20:44:07.779Z,100687.00
2022-12-03T20:46:36.350Z,100690.00
2022-12-03T20:49:04.833Z,100686.00
2022-12-03T20:51:33.468Z,100682.00
2022-12-03T20:54:02.133Z,100678.00
2022-12-03T20:56:33.130Z,100680.00
2022-12-03T20:59:06.193Z,100678.00
2022-12-03T21:01:36.252Z,100682.00
2022-12-03T21:04:07.218Z,100674.00
2022-12-03T21:06:37.096Z,100673.00
2022-12-03T21:09:08.738Z,100675.00
2022-12-03T21:11:39.162Z,100670.00
2022-12-03T21:14:07.768Z,100672.00
2022-12-03T21:17:07.218Z,100673.00
2022-12-03T21:19:27.681Z,100668.00
2022-12-03T21:21:55.400Z,100667.00
2022-12-03T21:24:23.151Z,100677.00
2022-12-03T21:26:51.273Z,100670.00
2022-12-03T21:29:19.206Z,100668.00
2022-12-03T21:31:47.264Z,100673.00
2022-12-03T21:34:15.011Z,100671.00
2022-12-03T21:36:42.867Z,100673.00
2022-12-03T21:39:11.015Z,100670.00
2022-12-03T21:41:38.830Z,100665.00
2022-12-03T21:44:06.603Z,100681.00
2022-12-03T21:47:11.892Z,100672.00
2022-12-03T21:49:22.869Z,100663.00
2022-12-03T21:51:50.886Z,100661.00
2022-12-03T21:54:18.789Z,100665.00
2022-12-03T21:56:46.684Z,100658.00
2022-12-03T21:59:14.538Z,100666.00
2022-12-03T22:01:46.988Z,100666.00
2022-12-03T22:04:15.247Z,100663.00
2022-12-03T22:06:43.397Z,100661.00
2022-12-03T22:09:11.294Z,100658.00
2022-12-03T22:11:39.161Z,100657.00
2022-12-03T22:14:08.406Z,100654.00
2022-12-03T22:16:36.490Z,100652.00
2022-12-03T22:19:04.726Z,100653.00
2022-12-03T22:21:32.583Z,100647.00
2022-12-03T22:24:00.492Z,100651.00
2022-12-03T22:26:28.484Z,100650.00
2022-12-03T22:28:56.275Z,100649.00
2022-12-03T22:31:24.184Z,100652.00
2022-12-03T22:33:52.004Z,100657.00
2022-12-03T22:36:21.893Z,100655.00
2022-12-03T22:38:51.012Z,100659.00
2022-12-03T22:41:19.864Z,100661.00
2022-12-03T22:43:48.491Z,100646.00
2022-12-03T22:46:17.455Z,100644.00
2022-12-03T22:48:46.703Z,100639.00
2022-12-03T22:51:19.791Z,100645.00
2022-12-03T22:53:48.151Z,100642.00
2022-12-03T22:56:17.590Z,100638.00
2022-12-03T22:58:45.508Z,100645.00
2022-12-03T23:01:21.436Z,100639.00
2022-12-03T23:03:49.627Z,100644.00
2022-12-03T23:06:18.197Z,100636.00
2022-12-03T23:08:46.084Z,100634.00
2022-12-03T23:11:14.195Z,100625.00
2022-12-03T23:13:44.609Z,100633.00
2022-12-03T23:16:21.573Z,100631.00
2022-12-03T23:18:49.881Z,100624.00
2022-12-03T23:21:22.797Z,100617.00
2022-12-03T23:23:54.906Z,100620.00
2022-12-03T23:26:22.984Z,100612.00
2022-12-03T23:28:50.910Z,100620.00
2022-12-03T23:31:20.200Z,100602.00
2022-12-03T23:33:48.637Z,100614.00
2022-12-03T23:36:17.248Z,100609.00
2022-12-03T23:38:45.297Z,100599.00
2022-12-03T23:41:15.662Z,100603.00
2022-12-03T23:43:43.814Z,100609.00
2022-12-03T23:46:20.512Z,100604.00
2022-12-03T23:48:48.506Z,100600.00
2022-12-03T23:51:19.537Z,100596.00
2022-12-03T23:53:47.906Z,100601.00
2022-12-03T23:56:18.286Z,100604.00
2022-12-03T23:58:46.727Z,100601.00
